sensor_id;sensor_type;location;lat;lon;timestamp;P1;durP1;ratioP1;P2;durP2;ratioP2
24713;SDS011;12820;51.580;5.010;2022-08-11T00:04:23;5.30;;;1.75;;
24713;SDS011;12820;51.580;5.010;2022-08-11T00:09:31;4.47;;;1.75;;
24713;SDS011;12820;51.580;5.010;2022-08-11T00:14:41;4.35;;;1.58;;
24713;SDS011;12820;51.580;5.010;2022-08-11T00:19:45;4.10;;;2.03;;
24713;SDS011;12820;51.580;5.010;2022-08-11T00:25:09;5.43;;;1.80;;
24713;SDS011;12820;51.580;5.010;2022-08-11T00:30:14;3.38;;;1.50;;
24713;SDS011;12820;51.580;5.010;2022-08-11T00:35:16;3.90;;;1.80;;
24713;SDS011;12820;51.580;5.010;2022-08-11T00:40:50;3.67;;;1.60;;
24713;SDS011;12820;51.580;5.010;2022-08-11T00:46:11;4.25;;;1.50;;
24713;SDS011;12820;51.580;5.010;2022-08-11T00:51:29;5.93;;;1.73;;
24713;SDS011;12820;51.580;5.010;2022-08-11T01:03:02;4.25;;;1.65;;
24713;SDS011;12820;51.580;5.010;2022-08-11T01:08:17;4.45;;;1.63;;
24713;SDS011;12820;51.580;5.010;2022-08-11T01:46:11;6.40;;;2.10;;
24713;SDS011;12820;51.580;5.010;2022-08-11T02:07:54;6.93;;;2.15;;
24713;SDS011;12820;51.580;5.010;2022-08-11T02:13:14;6.13;;;2.47;;
24713;SDS011;12820;51.580;5.010;2022-08-11T02:18:37;4.85;;;2.22;;
24713;SDS011;12820;51.580;5.010;2022-08-11T02:24:03;5.25;;;2.03;;
24713;SDS011;12820;51.580;5.010;2022-08-11T02:29:28;5.05;;;2.08;;
24713;SDS011;12820;51.580;5.010;2022-08-11T02:35:07;4.03;;;1.83;;
24713;SDS011;12820;51.580;5.010;2022-08-11T02:40:16;4.75;;;2.13;;
24713;SDS011;12820;51.580;5.010;2022-08-11T02:45:28;4.28;;;2.00;;
24713;SDS011;12820;51.580;5.010;2022-08-11T02:50:41;4.30;;;2.08;;
24713;SDS011;12820;51.580;5.010;2022-08-11T03:01:27;4.47;;;1.88;;
24713;SDS011;12820;51.580;5.010;2022-08-11T03:06:44;4.53;;;1.98;;
24713;SDS011;12820;51.580;5.010;2022-08-11T03:17:46;7.18;;;2.15;;
24713;SDS011;12820;51.580;5.010;2022-08-11T03:28:28;3.40;;;1.95;;
24713;SDS011;12820;51.580;5.010;2022-08-11T03:33:48;9.20;;;2.30;;
24713;SDS011;12820;51.580;5.010;2022-08-11T04:27:34;6.10;;;2.43;;
24713;SDS011;12820;51.580;5.010;2022-08-11T04:33:01;4.80;;;2.40;;
24713;SDS011;12820;51.580;5.010;2022-08-11T05:00:21;6.53;;;2.30;;
24713;SDS011;12820;51.580;5.010;2022-08-11T05:11:44;7.20;;;2.85;;
24713;SDS011;12820;51.580;5.010;2022-08-11T05:17:05;5.20;;;2.67;;
24713;SDS011;12820;51.580;5.010;2022-08-11T05:22:30;5.00;;;2.88;;
24713;SDS011;12820;51.580;5.010;2022-08-11T05:28:02;7.43;;;3.10;;
24713;SDS011;12820;51.580;5.010;2022-08-11T05:33:29;6.05;;;2.72;;
24713;SDS011;12820;51.580;5.010;2022-08-11T05:38:56;5.55;;;2.92;;
24713;SDS011;12820;51.580;5.010;2022-08-11T05:44:19;6.55;;;2.58;;
24713;SDS011;12820;51.580;5.010;2022-08-11T05:49:40;8.35;;;2.92;;
24713;SDS011;12820;51.580;5.010;2022-08-11T05:55:02;7.43;;;2.95;;
24713;SDS011;12820;51.580;5.010;2022-08-11T06:00:25;6.35;;;2.97;;
24713;SDS011;12820;51.580;5.010;2022-08-11T06:05:31;9.93;;;3.30;;
24713;SDS011;12820;51.580;5.010;2022-08-11T06:10:45;7.40;;;3.15;;
24713;SDS011;12820;51.580;5.010;2022-08-11T06:15:48;10.13;;;3.80;;
24713;SDS011;12820;51.580;5.010;2022-08-11T06:20:54;6.75;;;3.03;;
24713;SDS011;12820;51.580;5.010;2022-08-11T06:25:58;6.50;;;3.20;;
24713;SDS011;12820;51.580;5.010;2022-08-11T06:31:09;5.63;;;3.33;;
24713;SDS011;12820;51.580;5.010;2022-08-11T06:42:00;6.10;;;3.15;;
24713;SDS011;12820;51.580;5.010;2022-08-11T06:47:16;6.43;;;2.90;;
24713;SDS011;12820;51.580;5.010;2022-08-11T06:52:19;7.28;;;3.33;;
24713;SDS011;12820;51.580;5.010;2022-08-11T06:57:37;8.10;;;3.13;;
24713;SDS011;12820;51.580;5.010;2022-08-11T07:03:02;7.22;;;3.67;;
24713;SDS011;12820;51.580;5.010;2022-08-11T07:14:04;6.72;;;3.42;;
24713;SDS011;12820;51.580;5.010;2022-08-11T07:19:27;6.20;;;3.17;;
24713;SDS011;12820;51.580;5.010;2022-08-11T07:24:54;5.28;;;2.80;;
24713;SDS011;12820;51.580;5.010;2022-08-11T07:30:24;8.68;;;3.45;;
24713;SDS011;12820;51.580;5.010;2022-08-11T07:35:31;5.78;;;3.17;;
24713;SDS011;12820;51.580;5.010;2022-08-11T07:40:35;6.95;;;3.22;;
24713;SDS011;12820;51.580;5.010;2022-08-11T07:45:45;6.85;;;2.85;;
24713;SDS011;12820;51.580;5.010;2022-08-11T07:51:06;7.82;;;3.30;;
24713;SDS011;12820;51.580;5.010;2022-08-11T07:56:27;6.63;;;2.93;;
24713;SDS011;12820;51.580;5.010;2022-08-11T08:01:49;8.32;;;3.17;;
24713;SDS011;12820;51.580;5.010;2022-08-11T08:07:10;12.23;;;3.08;;
24713;SDS011;12820;51.580;5.010;2022-08-11T08:12:35;4.43;;;2.80;;
24713;SDS011;12820;51.580;5.010;2022-08-11T08:17:56;5.82;;;2.63;;
24713;SDS011;12820;51.580;5.010;2022-08-11T08:23:20;6.28;;;2.78;;
24713;SDS011;12820;51.580;5.010;2022-08-11T08:28:35;8.30;;;2.80;;
24713;SDS011;12820;51.580;5.010;2022-08-11T08:33:37;4.90;;;2.95;;
24713;SDS011;12820;51.580;5.010;2022-08-11T08:38:48;6.30;;;2.70;;
24713;SDS011;12820;51.580;5.010;2022-08-11T08:43:54;5.32;;;2.95;;
24713;SDS011;12820;51.580;5.010;2022-08-11T08:49:17;8.98;;;3.38;;
24713;SDS011;12820;51.580;5.010;2022-08-11T08:54:25;7.70;;;3.03;;
24713;SDS011;12820;51.580;5.010;2022-08-11T08:59:38;7.82;;;3.22;;
24713;SDS011;12820;51.580;5.010;2022-08-11T09:04:50;7.25;;;3.20;;
24713;SDS011;12820;51.580;5.010;2022-08-11T09:09:53;7.80;;;3.08;;
24713;SDS011;12820;51.580;5.010;2022-08-11T09:14:58;5.18;;;2.92;;
24713;SDS011;12820;51.580;5.010;2022-08-11T09:20:11;6.93;;;3.10;;
24713;SDS011;12820;51.580;5.010;2022-08-11T09:25:15;7.18;;;3.15;;
24713;SDS011;12820;51.580;5.010;2022-08-11T09:30:41;6.18;;;2.92;;
24713;SDS011;12820;51.580;5.010;2022-08-11T09:35:46;8.63;;;3.03;;
24713;SDS011;12820;51.580;5.010;2022-08-11T09:40:50;6.85;;;3.00;;
24713;SDS011;12820;51.580;5.010;2022-08-11T09:45:57;9.13;;;2.95;;
24713;SDS011;12820;51.580;5.010;2022-08-11T09:51:00;7.80;;;2.70;;
24713;SDS011;12820;51.580;5.010;2022-08-11T09:56:04;5.32;;;2.95;;
24713;SDS011;12820;51.580;5.010;2022-08-11T10:01:28;4.75;;;2.60;;
24713;SDS011;12820;51.580;5.010;2022-08-11T10:06:33;4.70;;;2.72;;
24713;SDS011;12820;51.580;5.010;2022-08-11T10:11:57;4.47;;;2.35;;
24713;SDS011;12820;51.580;5.010;2022-08-11T10:17:05;7.75;;;2.97;;
24713;SDS011;12820;51.580;5.010;2022-08-11T10:22:09;5.50;;;2.85;;
24713;SDS011;12820;51.580;5.010;2022-08-11T10:27:33;6.28;;;2.40;;
24713;SDS011;12820;51.580;5.010;2022-08-11T10:32:56;5.00;;;2.60;;
24713;SDS011;12820;51.580;5.010;2022-08-11T10:38:38;7.05;;;2.60;;
24713;SDS011;12820;51.580;5.010;2022-08-11T10:43:40;5.85;;;3.10;;
24713;SDS011;12820;51.580;5.010;2022-08-11T10:49:03;5.28;;;2.85;;
24713;SDS011;12820;51.580;5.010;2022-08-11T10:54:05;4.38;;;2.50;;
24713;SDS011;12820;51.580;5.010;2022-08-11T10:59:26;6.25;;;2.53;;
24713;SDS011;12820;51.580;5.010;2022-08-11T11:10:01;4.72;;;2.50;;
24713;SDS011;12820;51.580;5.010;2022-08-11T11:15:04;4.13;;;2.20;;
24713;SDS011;12820;51.580;5.010;2022-08-11T11:20:27;7.68;;;2.50;;
24713;SDS011;12820;51.580;5.010;2022-08-11T11:25:45;4.35;;;2.05;;
24713;SDS011;12820;51.580;5.010;2022-08-11T11:36:36;5.78;;;2.30;;
24713;SDS011;12820;51.580;5.010;2022-08-11T11:41:47;4.05;;;2.20;;
24713;SDS011;12820;51.580;5.010;2022-08-11T11:46:50;4.13;;;2.33;;
24713;SDS011;12820;51.580;5.010;2022-08-11T11:51:54;5.53;;;2.08;;
24713;SDS011;12820;51.580;5.010;2022-08-11T11:56:57;6.40;;;2.08;;
24713;SDS011;12820;51.580;5.010;2022-08-11T12:02:21;7.03;;;1.95;;
24713;SDS011;12820;51.580;5.010;2022-08-11T12:07:23;4.82;;;2.00;;
24713;SDS011;12820;51.580;5.010;2022-08-11T12:18:05;5.10;;;2.22;;
24713;SDS011;12820;51.580;5.010;2022-08-11T12:23:07;4.45;;;1.90;;
24713;SDS011;12820;51.580;5.010;2022-08-11T12:28:28;3.22;;;1.70;;
24713;SDS011;12820;51.580;5.010;2022-08-11T12:33:31;5.13;;;1.98;;
24713;SDS011;12820;51.580;5.010;2022-08-11T12:38:38;3.42;;;1.90;;
24713;SDS011;12820;51.580;5.010;2022-08-11T12:43:41;5.20;;;2.30;;
24713;SDS011;12820;51.580;5.010;2022-08-11T12:49:12;3.80;;;2.00;;
24713;SDS011;12820;51.580;5.010;2022-08-11T12:54:40;5.20;;;1.83;;
24713;SDS011;12820;51.580;5.010;2022-08-11T12:59:44;3.50;;;1.80;;
24713;SDS011;12820;51.580;5.010;2022-08-11T13:05:07;5.35;;;1.95;;
24713;SDS011;12820;51.580;5.010;2022-08-11T13:10:15;4.85;;;1.92;;
24713;SDS011;12820;51.580;5.010;2022-08-11T13:15:38;3.50;;;2.00;;
24713;SDS011;12820;51.580;5.010;2022-08-11T13:20:40;3.97;;;1.77;;
24713;SDS011;12820;51.580;5.010;2022-08-11T13:25:45;4.43;;;2.00;;
24713;SDS011;12820;51.580;5.010;2022-08-11T13:30:48;3.75;;;1.73;;
24713;SDS011;12820;51.580;5.010;2022-08-11T13:36:10;3.05;;;1.65;;
24713;SDS011;12820;51.580;5.010;2022-08-11T13:41:13;3.75;;;1.77;;
24713;SDS011;12820;51.580;5.010;2022-08-11T13:46:34;6.55;;;1.80;;
24713;SDS011;12820;51.580;5.010;2022-08-11T13:51:37;3.40;;;1.80;;
24713;SDS011;12820;51.580;5.010;2022-08-11T13:56:41;2.90;;;1.50;;
24713;SDS011;12820;51.580;5.010;2022-08-11T14:01:55;4.60;;;1.52;;
24713;SDS011;12820;51.580;5.010;2022-08-11T14:07:21;4.65;;;1.70;;
24713;SDS011;12820;51.580;5.010;2022-08-11T14:12:28;7.05;;;1.83;;
24713;SDS011;12820;51.580;5.010;2022-08-11T14:17:51;4.45;;;2.00;;
24713;SDS011;12820;51.580;5.010;2022-08-11T14:22:58;5.50;;;2.05;;
24713;SDS011;12820;51.580;5.010;2022-08-11T14:28:00;3.70;;;1.73;;
24713;SDS011;12820;51.580;5.010;2022-08-11T14:33:22;7.03;;;1.73;;
24713;SDS011;12820;51.580;5.010;2022-08-11T14:38:39;3.83;;;1.88;;
24713;SDS011;12820;51.580;5.010;2022-08-11T14:43:42;3.67;;;1.70;;
24713;SDS011;12820;51.580;5.010;2022-08-11T14:49:15;3.20;;;1.42;;
24713;SDS011;12820;51.580;5.010;2022-08-11T14:54:17;2.88;;;1.63;;
24713;SDS011;12820;51.580;5.010;2022-08-11T14:59:38;2.80;;;1.35;;
24713;SDS011;12820;51.580;5.010;2022-08-11T15:04:41;6.45;;;1.60;;
24713;SDS011;12820;51.580;5.010;2022-08-11T15:09:43;4.07;;;1.60;;
24713;SDS011;12820;51.580;5.010;2022-08-11T15:15:06;3.10;;;1.52;;
24713;SDS011;12820;51.580;5.010;2022-08-11T15:20:28;3.13;;;1.40;;
24713;SDS011;12820;51.580;5.010;2022-08-11T15:25:58;2.80;;;1.50;;
24713;SDS011;12820;51.580;5.010;2022-08-11T15:31:04;4.68;;;1.88;;
24713;SDS011;12820;51.580;5.010;2022-08-11T15:36:25;5.43;;;1.70;;
24713;SDS011;12820;51.580;5.010;2022-08-11T15:42:06;2.97;;;1.55;;
24713;SDS011;12820;51.580;5.010;2022-08-11T15:47:34;3.33;;;1.70;;
24713;SDS011;12820;51.580;5.010;2022-08-11T15:58:18;4.18;;;1.70;;
24713;SDS011;12820;51.580;5.010;2022-08-11T16:03:49;5.43;;;1.50;;
24713;SDS011;12820;51.580;5.010;2022-08-11T16:09:13;3.85;;;1.50;;
24713;SDS011;12820;51.580;5.010;2022-08-11T16:14:19;6.32;;;2.00;;
24713;SDS011;12820;51.580;5.010;2022-08-11T16:19:42;3.72;;;1.70;;
24713;SDS011;12820;51.580;5.010;2022-08-11T16:24:46;4.43;;;2.30;;
24713;SDS011;12820;51.580;5.010;2022-08-11T16:30:10;3.40;;;1.80;;
24713;SDS011;12820;51.580;5.010;2022-08-11T16:35:15;3.20;;;1.50;;
24713;SDS011;12820;51.580;5.010;2022-08-11T16:40:38;3.97;;;1.60;;
24713;SDS011;12820;51.580;5.010;2022-08-11T16:45:40;3.95;;;1.63;;
24713;SDS011;12820;51.580;5.010;2022-08-11T16:51:03;2.92;;;1.52;;
24713;SDS011;12820;51.580;5.010;2022-08-11T16:56:10;4.05;;;1.90;;
24713;SDS011;12820;51.580;5.010;2022-08-11T17:01:18;4.47;;;1.90;;
24713;SDS011;12820;51.580;5.010;2022-08-11T17:06:22;4.45;;;1.80;;
24713;SDS011;12820;51.580;5.010;2022-08-11T17:11:49;3.30;;;1.50;;
24713;SDS011;12820;51.580;5.010;2022-08-11T17:17:14;2.78;;;1.50;;
24713;SDS011;12820;51.580;5.010;2022-08-11T17:22:18;3.75;;;1.63;;
24713;SDS011;12820;51.580;5.010;2022-08-11T17:27:40;3.40;;;1.98;;
24713;SDS011;12820;51.580;5.010;2022-08-11T17:32:47;4.03;;;1.92;;
24713;SDS011;12820;51.580;5.010;2022-08-11T17:38:18;4.32;;;1.90;;
24713;SDS011;12820;51.580;5.010;2022-08-11T17:43:22;2.90;;;1.60;;
24713;SDS011;12820;51.580;5.010;2022-08-11T17:48:43;4.00;;;1.73;;
24713;SDS011;12820;51.580;5.010;2022-08-11T17:53:49;4.80;;;1.73;;
24713;SDS011;12820;51.580;5.010;2022-08-11T17:59:25;6.22;;;2.13;;
24713;SDS011;12820;51.580;5.010;2022-08-11T18:04:50;3.42;;;1.63;;
24713;SDS011;12820;51.580;5.010;2022-08-11T18:09:53;3.08;;;1.80;;
24713;SDS011;12820;51.580;5.010;2022-08-11T18:15:14;4.30;;;1.83;;
24713;SDS011;12820;51.580;5.010;2022-08-11T18:20:35;4.75;;;2.00;;
24713;SDS011;12820;51.580;5.010;2022-08-11T18:25:56;4.88;;;1.80;;
24713;SDS011;12820;51.580;5.010;2022-08-11T18:31:21;4.63;;;2.20;;
24713;SDS011;12820;51.580;5.010;2022-08-11T18:36:44;4.40;;;1.80;;
24713;SDS011;12820;51.580;5.010;2022-08-11T18:42:22;4.38;;;1.60;;
24713;SDS011;12820;51.580;5.010;2022-08-11T18:47:47;3.90;;;1.83;;
24713;SDS011;12820;51.580;5.010;2022-08-11T18:53:12;4.78;;;2.17;;
24713;SDS011;12820;51.580;5.010;2022-08-11T18:58:33;4.13;;;1.83;;
24713;SDS011;12820;51.580;5.010;2022-08-11T19:03:56;3.33;;;1.95;;
24713;SDS011;12820;51.580;5.010;2022-08-11T19:09:20;3.90;;;1.98;;
24713;SDS011;12820;51.580;5.010;2022-08-11T19:14:40;5.35;;;1.92;;
24713;SDS011;12820;51.580;5.010;2022-08-11T19:20:04;4.10;;;1.92;;
24713;SDS011;12820;51.580;5.010;2022-08-11T19:25:27;8.23;;;2.70;;
24713;SDS011;12820;51.580;5.010;2022-08-11T19:30:51;7.72;;;2.20;;
24713;SDS011;12820;51.580;5.010;2022-08-11T19:36:13;3.67;;;2.35;;
24713;SDS011;12820;51.580;5.010;2022-08-11T19:41:35;4.50;;;2.10;;
24713;SDS011;12820;51.580;5.010;2022-08-11T19:46:58;4.93;;;2.45;;
24713;SDS011;12820;51.580;5.010;2022-08-11T19:52:21;4.88;;;2.60;;
24713;SDS011;12820;51.580;5.010;2022-08-11T19:57:44;4.70;;;2.17;;
24713;SDS011;12820;51.580;5.010;2022-08-11T20:03:08;5.05;;;2.13;;
24713;SDS011;12820;51.580;5.010;2022-08-11T20:08:30;6.70;;;2.55;;
24713;SDS011;12820;51.580;5.010;2022-08-11T20:13:59;4.13;;;2.40;;
24713;SDS011;12820;51.580;5.010;2022-08-11T20:19:21;4.72;;;2.38;;
24713;SDS011;12820;51.580;5.010;2022-08-11T20:24:57;4.45;;;2.38;;
24713;SDS011;12820;51.580;5.010;2022-08-11T20:30:18;4.50;;;2.37;;
24713;SDS011;12820;51.580;5.010;2022-08-11T20:35:39;3.67;;;2.10;;
24713;SDS011;12820;51.580;5.010;2022-08-11T20:41:00;4.10;;;2.30;;
24713;SDS011;12820;51.580;5.010;2022-08-11T20:46:22;4.20;;;2.55;;
24713;SDS011;12820;51.580;5.010;2022-08-11T20:51:44;5.35;;;3.00;;
24713;SDS011;12820;51.580;5.010;2022-08-11T20:57:07;4.78;;;2.50;;
24713;SDS011;12820;51.580;5.010;2022-08-11T21:02:49;7.47;;;2.70;;
24713;SDS011;12820;51.580;5.010;2022-08-11T21:08:13;9.07;;;2.72;;
24713;SDS011;12820;51.580;5.010;2022-08-11T21:13:37;5.07;;;2.58;;
24713;SDS011;12820;51.580;5.010;2022-08-11T21:19:12;5.32;;;2.58;;
24713;SDS011;12820;51.580;5.010;2022-08-11T21:24:58;5.22;;;2.40;;
24713;SDS011;12820;51.580;5.010;2022-08-11T21:30:20;4.45;;;2.08;;
24713;SDS011;12820;51.580;5.010;2022-08-11T21:35:42;5.05;;;2.53;;
24713;SDS011;12820;51.580;5.010;2022-08-11T21:41:02;5.57;;;2.70;;
24713;SDS011;12820;51.580;5.010;2022-08-11T21:46:25;5.32;;;2.70;;
24713;SDS011;12820;51.580;5.010;2022-08-11T21:51:47;4.95;;;2.55;;
24713;SDS011;12820;51.580;5.010;2022-08-11T21:57:09;3.90;;;2.50;;
24713;SDS011;12820;51.580;5.010;2022-08-11T22:02:33;7.55;;;2.70;;
24713;SDS011;12820;51.580;5.010;2022-08-11T22:07:54;5.53;;;2.80;;
24713;SDS011;12820;51.580;5.010;2022-08-11T22:13:16;5.32;;;2.80;;
24713;SDS011;12820;51.580;5.010;2022-08-11T22:18:37;3.97;;;2.25;;
24713;SDS011;12820;51.580;5.010;2022-08-11T22:24:02;4.88;;;2.80;;
24713;SDS011;12820;51.580;5.010;2022-08-11T22:29:30;4.68;;;2.55;;
24713;SDS011;12820;51.580;5.010;2022-08-11T22:40:12;5.93;;;2.60;;
24713;SDS011;12820;51.580;5.010;2022-08-11T22:45:33;4.72;;;2.40;;
24713;SDS011;12820;51.580;5.010;2022-08-11T22:50:55;7.53;;;2.73;;
24713;SDS011;12820;51.580;5.010;2022-08-11T22:56:18;9.93;;;2.35;;
24713;SDS011;12820;51.580;5.010;2022-08-11T23:01:39;4.18;;;2.20;;
24713;SDS011;12820;51.580;5.010;2022-08-11T23:07:00;4.03;;;2.10;;
24713;SDS011;12820;51.580;5.010;2022-08-11T23:12:41;5.22;;;1.92;;
24713;SDS011;12820;51.580;5.010;2022-08-11T23:18:03;3.60;;;2.00;;
24713;SDS011;12820;51.580;5.010;2022-08-11T23:23:26;5.05;;;2.13;;
24713;SDS011;12820;51.580;5.010;2022-08-11T23:28:47;4.93;;;2.30;;
24713;SDS011;12820;51.580;5.010;2022-08-11T23:34:12;5.10;;;2.20;;
24713;SDS011;12820;51.580;5.010;2022-08-11T23:39:57;3.60;;;2.00;;
24713;SDS011;12820;51.580;5.010;2022-08-11T23:45:21;3.65;;;1.90;;
24713;SDS011;12820;51.580;5.010;2022-08-11T23:50:42;5.35;;;1.88;;
24713;SDS011;12820;51.580;5.010;2022-08-11T23:56:03;7.05;;;2.10;;
